createdAt,value
2022-07-25T00:02:00.856Z,76.60
2022-07-25T00:04:29.166Z,76.80
2022-07-25T00:06:58.067Z,77.10
2022-07-25T00:09:25.025Z,76.80
2022-07-25T00:11:51.997Z,77.30
2022-07-25T00:14:19.082Z,77.80
2022-07-25T00:16:46.099Z,77.80
2022-07-25T00:19:13.610Z,77.70
2022-07-25T00:21:43.747Z,78.00
2022-07-25T00:24:12.308Z,78.10
2022-07-25T00:26:40.523Z,77.70
2022-07-25T00:29:07.953Z,78.00
2022-07-25T00:31:35.119Z,78.20
2022-07-25T00:34:02.433Z,78.10
2022-07-25T00:36:29.587Z,77.80
2022-07-25T00:38:56.799Z,78.20
2022-07-25T00:41:25.192Z,78.30
2022-07-25T00:43:52.340Z,78.60
2022-07-25T00:46:19.672Z,78.60
2022-07-25T00:48:48.073Z,79.10
2022-07-25T00:51:16.841Z,78.70
2022-07-25T00:53:50.884Z,78.90
2022-07-25T00:56:17.991Z,78.20
2022-07-25T00:58:46.849Z,78.30
2022-07-25T01:01:14.028Z,79.00
2022-07-25T01:03:41.312Z,79.20
2022-07-25T01:06:08.968Z,79.00
2022-07-25T01:08:36.263Z,78.40
2022-07-25T01:11:03.703Z,78.80
2022-07-25T01:13:33.502Z,79.50
2022-07-25T01:16:01.868Z,79.90
2022-07-25T01:18:28.971Z,80.00
2022-07-25T01:20:57.504Z,79.60
2022-07-25T01:23:24.604Z,79.20
2022-07-25T01:25:51.530Z,79.10
2022-07-25T01:28:18.810Z,79.30
2022-07-25T01:30:46.008Z,80.00
2022-07-25T01:33:16.278Z,80.60
2022-07-25T01:35:43.713Z,80.50
2022-07-25T01:38:13.130Z,80.70
2022-07-25T01:40:41.490Z,81.30
2022-07-25T01:43:14.806Z,81.50
2022-07-25T01:45:42.070Z,81.60
2022-07-25T01:48:09.321Z,81.80
2022-07-25T01:50:36.673Z,81.90
2022-07-25T01:53:04.442Z,81.80
2022-07-25T01:55:33.081Z,81.20
2022-07-25T01:58:00.127Z,80.70
2022-07-25T02:00:28.173Z,81.10
2022-07-25T02:03:15.115Z,80.80
2022-07-25T02:05:42.258Z,80.30
2022-07-25T02:08:09.931Z,80.90
2022-07-25T02:10:39.713Z,80.40
2022-07-25T02:13:06.788Z,80.40
2022-07-25T02:15:33.989Z,81.30
2022-07-25T02:18:00.986Z,81.20
2022-07-25T02:20:27.997Z,81.20
2022-07-25T02:22:54.985Z,81.40
2022-07-25T02:25:22.121Z,81.20
2022-07-25T02:27:50.677Z,81.00
2022-07-25T02:30:17.707Z,81.20
2022-07-25T02:32:44.662Z,81.30
2022-07-25T02:35:13.279Z,82.00
2022-07-25T02:37:40.564Z,82.30
2022-07-25T02:40:09.531Z,82.10
2022-07-25T02:42:36.540Z,81.50
2022-07-25T02:45:06.968Z,81.40
2022-07-25T02:47:33.976Z,82.20
2022-07-25T02:50:01.208Z,82.30
2022-07-25T02:52:30.973Z,82.40
2022-07-25T02:54:58.149Z,82.90
2022-07-25T02:57:28.339Z,83.10
2022-07-25T02:59:55.477Z,83.10
2022-07-25T03:02:24.268Z,82.70
2022-07-25T03:04:51.270Z,82.90
2022-07-25T03:07:18.405Z,82.80
2022-07-25T03:09:45.506Z,83.50
2022-07-25T03:12:12.450Z,83.10
2022-07-25T03:14:42.362Z,83.00
2022-07-25T03:17:09.479Z,83.10
2022-07-25T03:19:37.866Z,83.10
2022-07-25T03:22:04.869Z,83.10
2022-07-25T03:24:32.090Z,83.00
2022-07-25T03:26:59.153Z,83.10
2022-07-25T03:29:26.198Z,83.10
2022-07-25T03:31:53.196Z,83.10
2022-07-25T03:34:20.368Z,83.00
2022-07-25T03:36:51.487Z,83.20
2022-07-25T03:39:18.736Z,83.70
2022-07-25T03:41:46.380Z,84.70
2022-07-25T03:44:13.500Z,85.80
2022-07-25T03:46:40.669Z,85.70
2022-07-25T03:49:07.668Z,85.70
2022-07-25T03:51:34.687Z,85.70
2022-07-25T03:54:03.825Z,85.50
2022-07-25T03:56:41.522Z,85.70
2022-07-25T03:59:13.986Z,85.50
2022-07-25T04:01:42.255Z,85.70
2022-07-25T04:04:12.541Z,85.40
2022-07-25T04:06:40.944Z,85.20
2022-07-25T04:09:10.591Z,86.00
2022-07-25T04:11:38.497Z,87.00
2022-07-25T04:14:06.584Z,87.30
2022-07-25T04:16:34.926Z,87.50
2022-07-25T04:19:04.402Z,86.50
2022-07-25T04:21:33.734Z,86.00
2022-07-25T04:24:00.712Z,86.10
2022-07-25T04:26:29.750Z,87.00
2022-07-25T04:28:58.733Z,87.40
2022-07-25T04:31:26.246Z,87.70
2022-07-25T04:33:53.464Z,87.60
2022-07-25T04:36:20.835Z,87.40
2022-07-25T04:38:50.617Z,87.40
2022-07-25T04:41:17.695Z,88.40
2022-07-25T04:43:48.786Z,88.50
2022-07-25T04:46:19.268Z,89.00
2022-07-25T04:48:46.603Z,88.80
2022-07-25T04:51:15.338Z,89.10
2022-07-25T04:53:42.640Z,88.60
2022-07-25T04:56:09.837Z,88.70
2022-07-25T04:58:36.938Z,88.90
2022-07-25T05:01:05.780Z,88.70
2022-07-25T05:03:32.986Z,89.30
2022-07-25T05:06:00.059Z,89.50
2022-07-25T05:08:27.076Z,89.70
2022-07-25T05:10:54.187Z,89.80
2022-07-25T05:13:21.299Z,89.70
2022-07-25T05:15:51.114Z,89.40
2022-07-25T05:18:19.577Z,89.20
2022-07-25T05:20:46.670Z,90.00
2022-07-25T05:23:13.863Z,89.60
2022-07-25T05:25:40.897Z,89.90
2022-07-25T05:28:07.948Z,89.50
2022-07-25T05:30:39.576Z,90.00
2022-07-25T05:33:07.015Z,89.70
2022-07-25T05:35:35.503Z,89.50
2022-07-25T05:38:02.492Z,90.00
2022-07-25T05:40:29.650Z,90.00
2022-07-25T05:43:00.986Z,90.10
2022-07-25T05:45:29.893Z,89.50
2022-07-25T05:47:56.882Z,89.00
2022-07-25T05:50:24.141Z,88.40
2022-07-25T05:52:52.624Z,88.10
2022-07-25T05:55:19.777Z,87.80
2022-07-25T05:57:46.850Z,87.30
2022-07-25T06:00:14.944Z,87.40
2022-07-25T06:02:42.191Z,87.60
2022-07-25T06:05:09.797Z,87.30
2022-07-25T06:07:36.903Z,87.40
2022-07-25T06:10:06.203Z,87.20
2022-07-25T06:12:33.790Z,87.20
2022-07-25T06:15:04.784Z,86.30
2022-07-25T06:17:32.774Z,86.70
2022-07-25T06:20:00.286Z,86.80
2022-07-25T06:22:27.307Z,86.50
2022-07-25T06:24:54.306Z,86.30
2022-07-25T06:27:27.430Z,85.90
2022-07-25T06:29:56.264Z,85.10
2022-07-25T06:32:23.333Z,84.80
2022-07-25T06:34:51.121Z,83.10
2022-07-25T06:37:18.307Z,83.70
2022-07-25T06:39:46.012Z,83.30
2022-07-25T06:42:13.442Z,83.00
2022-07-25T06:44:42.054Z,82.80
2022-07-25T06:47:12.850Z,82.50
2022-07-25T06:49:41.037Z,82.10
2022-07-25T06:52:08.547Z,82.10
2022-07-25T06:54:35.636Z,81.90
2022-07-25T06:57:02.759Z,80.70
2022-07-25T06:59:29.891Z,79.70
2022-07-25T07:01:58.415Z,78.50
2022-07-25T07:04:25.420Z,78.20
2022-07-25T07:06:53.774Z,78.10
2022-07-25T07:09:20.818Z,77.30
2022-07-25T07:11:51.114Z,76.70
2022-07-25T07:14:18.124Z,76.30
2022-07-25T07:16:45.393Z,74.90
2022-07-25T07:19:17.719Z,74.80
2022-07-25T07:21:45.701Z,73.50
2022-07-25T07:24:23.184Z,73.40
2022-07-25T07:26:52.406Z,72.00
2022-07-25T07:29:21.393Z,70.30
2022-07-25T07:31:48.678Z,69.10
2022-07-25T07:34:17.252Z,68.80
2022-07-25T07:36:44.336Z,70.60
2022-07-25T07:39:11.503Z,69.30
2022-07-25T07:41:44.725Z,69.90
2022-07-25T07:44:19.175Z,71.00
2022-07-25T07:46:46.283Z,72.70
2022-07-25T07:49:20.984Z,73.10
2022-07-25T07:51:48.109Z,72.80
2022-07-25T07:54:36.475Z,73.00
2022-07-25T07:57:03.716Z,72.60
2022-07-25T07:59:30.746Z,72.80
2022-07-25T08:01:57.887Z,73.30
2022-07-25T08:04:26.473Z,73.80
2022-07-25T08:06:53.553Z,73.00
2022-07-25T08:09:20.695Z,72.20
2022-07-25T08:11:47.739Z,71.90
2022-07-25T08:14:15.183Z,72.30
2022-07-25T08:16:42.406Z,72.50
2022-07-25T08:19:09.619Z,72.10
2022-07-25T08:21:37.988Z,72.10
2022-07-25T08:24:08.633Z,70.80
2022-07-25T08:26:37.136Z,70.80
2022-07-25T08:29:18.621Z,69.70
2022-07-25T08:31:46.612Z,69.00
2022-07-25T08:34:13.716Z,68.60
2022-07-25T08:36:42.349Z,68.10
2022-07-25T08:39:12.488Z,69.80
2022-07-25T08:41:41.092Z,68.60
2022-07-25T08:44:09.430Z,69.40
2022-07-25T08:46:38.047Z,69.80
2022-07-25T08:49:05.617Z,69.40
2022-07-25T08:51:36.590Z,69.90
2022-07-25T08:54:11.303Z,70.10
2022-07-25T08:56:38.545Z,70.60
2022-07-25T08:59:05.544Z,70.70
2022-07-25T09:01:34.908Z,70.70
2022-07-25T09:04:04.083Z,70.40
2022-07-25T09:06:31.443Z,71.60
2022-07-25T09:09:01.018Z,70.20
2022-07-25T09:11:32.713Z,70.70
2022-07-25T09:14:07.199Z,70.70
2022-07-25T09:16:40.062Z,70.40
2022-07-25T09:19:13.860Z,70.50
2022-07-25T09:21:43.243Z,71.40
2022-07-25T09:24:15.906Z,70.50
2022-07-25T09:26:55.558Z,70.50
2022-07-25T09:29:27.291Z,70.80
2022-07-25T09:31:57.651Z,71.80
2022-07-25T09:34:37.702Z,71.70
2022-07-25T09:37:13.062Z,72.50
2022-07-25T09:39:48.611Z,71.40
2022-07-25T09:42:20.410Z,71.50
2022-07-25T09:45:12.430Z,71.30
2022-07-25T09:47:52.407Z,71.40
2022-07-25T09:50:21.435Z,71.90
2022-07-25T09:52:50.461Z,71.70
2022-07-25T09:55:21.733Z,71.60
2022-07-25T09:57:52.534Z,70.70
2022-07-25T10:00:23.380Z,70.70
2022-07-25T10:03:16.341Z,70.30
2022-07-25T10:06:15.158Z,69.30
2022-07-25T10:08:45.288Z,69.50
2022-07-25T10:11:24.184Z,69.00
2022-07-25T10:13:53.778Z,68.70
2022-07-25T10:16:22.894Z,68.60
2022-07-25T10:18:55.902Z,69.30
2022-07-25T10:21:27.404Z,69.70
2022-07-25T10:24:02.470Z,70.00
2022-07-25T10:26:33.349Z,68.50
2022-07-25T10:29:07.243Z,68.70
2022-07-25T10:31:38.484Z,68.60
2022-07-25T10:34:13.895Z,68.80
2022-07-25T10:36:43.964Z,68.70
2022-07-25T10:39:13.669Z,68.30
2022-07-25T10:41:50.486Z,67.80
2022-07-25T10:44:18.934Z,67.00
2022-07-25T10:46:47.311Z,66.80
2022-07-25T10:49:29.152Z,66.70
2022-07-25T10:52:01.240Z,66.80
2022-07-25T10:54:34.648Z,66.90
2022-07-25T10:57:03.980Z,66.20
2022-07-25T10:59:35.486Z,65.90
2022-07-25T11:02:04.843Z,65.90
2022-07-25T11:04:36.978Z,65.20
2022-07-25T11:07:11.752Z,65.40
2022-07-25T11:09:45.458Z,65.80
2022-07-25T11:12:19.516Z,65.40
2022-07-25T11:14:47.984Z,65.50
2022-07-25T11:17:18.719Z,64.60
2022-07-25T11:19:55.539Z,63.40
2022-07-25T11:22:22.861Z,63.80
2022-07-25T11:24:49.927Z,63.50
2022-07-25T11:27:23.526Z,63.60
2022-07-25T11:29:52.156Z,62.90
2022-07-25T11:32:20.454Z,63.00
2022-07-25T11:34:50.857Z,62.90
2022-07-25T11:37:22.067Z,62.40
2022-07-25T11:39:49.400Z,63.30
2022-07-25T11:42:19.594Z,62.70
2022-07-25T11:44:52.606Z,62.70
2022-07-25T11:47:26.755Z,62.90
2022-07-25T11:49:56.344Z,63.20
2022-07-25T11:52:26.647Z,62.30
2022-07-25T11:54:55.970Z,61.60
2022-07-25T11:57:24.632Z,61.00
2022-07-25T11:59:54.281Z,61.70
2022-07-25T12:02:24.636Z,61.60
2022-07-25T12:04:58.258Z,61.50
2022-07-25T12:07:40.792Z,61.20
2022-07-25T12:10:11.734Z,61.60
2022-07-25T12:12:54.636Z,61.70
2022-07-25T12:15:25.862Z,61.60
2022-07-25T12:17:55.986Z,60.70
2022-07-25T12:20:25.646Z,60.60
2022-07-25T12:22:55.685Z,61.40
2022-07-25T12:25:31.178Z,61.20
2022-07-25T12:27:59.525Z,61.70
2022-07-25T12:30:34.207Z,61.10
2022-07-25T12:33:01.814Z,60.80
2022-07-25T12:35:32.246Z,60.80
2022-07-25T12:38:02.342Z,61.00
2022-07-25T12:40:35.406Z,60.50
2022-07-25T12:43:05.791Z,61.00
2022-07-25T12:45:35.288Z,61.60
2022-07-25T12:48:02.535Z,62.60
2022-07-25T12:50:29.780Z,62.50
2022-07-25T12:52:59.508Z,61.90
2022-07-25T12:55:29.780Z,62.90
2022-07-25T12:57:56.872Z,66.60
2022-07-25T13:00:24.705Z,70.00
2022-07-25T13:02:56.028Z,72.10
2022-07-25T13:05:24.216Z,72.10
2022-07-25T13:07:51.474Z,76.60
2022-07-25T13:10:25.365Z,81.00
2022-07-25T13:12:52.477Z,85.00
2022-07-25T13:15:22.178Z,84.90
2022-07-25T13:17:54.003Z,83.40
2022-07-25T13:20:24.571Z,80.70
2022-07-25T13:22:51.847Z,76.70
2022-07-25T13:25:22.069Z,73.20
2022-07-25T13:27:52.153Z,72.20
2022-07-25T13:30:19.490Z,69.40
2022-07-25T13:32:46.768Z,69.50
2022-07-25T13:35:20.465Z,67.00
2022-07-25T13:37:48.261Z,66.40
2022-07-25T13:40:21.849Z,66.80
2022-07-25T13:42:48.933Z,66.20
2022-07-25T13:45:16.168Z,66.00
2022-07-25T13:47:43.336Z,65.40
2022-07-25T13:50:11.002Z,64.90
2022-07-25T13:52:39.908Z,65.20
2022-07-25T13:55:11.297Z,65.20
2022-07-25T13:57:38.347Z,65.70
2022-07-25T14:00:07.519Z,65.20
2022-07-25T14:02:34.790Z,65.20
2022-07-25T14:05:04.226Z,63.90
2022-07-25T14:07:41.830Z,64.20
2022-07-25T14:10:12.645Z,63.60
2022-07-25T14:12:39.925Z,63.40
2022-07-25T14:15:09.427Z,63.00
2022-07-25T14:17:36.675Z,63.00
2022-07-25T14:20:04.687Z,63.00
2022-07-25T14:22:31.911Z,63.20
2022-07-25T14:25:03.200Z,62.50
2022-07-25T14:27:30.327Z,62.50
2022-07-25T14:29:57.881Z,62.40
2022-07-25T14:32:25.651Z,62.00
2022-07-25T14:34:53.059Z,62.40
2022-07-25T14:37:25.717Z,62.50
2022-07-25T14:39:52.973Z,61.90
2022-07-25T14:42:21.670Z,60.60
2022-07-25T14:44:48.676Z,60.40
2022-07-25T14:47:16.422Z,60.60
2022-07-25T14:49:46.605Z,60.70
2022-07-25T14:52:15.346Z,60.90
2022-07-25T14:54:42.854Z,60.60
2022-07-25T14:57:10.682Z,60.60
2022-07-25T14:59:39.305Z,60.20
2022-07-25T15:02:06.513Z,60.40
2022-07-25T15:04:34.056Z,60.10
2022-07-25T15:07:01.171Z,60.30
2022-07-25T15:09:34.426Z,60.50
2022-07-25T15:12:01.462Z,60.80
2022-07-25T15:14:31.494Z,60.80
2022-07-25T15:17:00.017Z,60.70
2022-07-25T15:19:27.362Z,60.80
2022-07-25T15:21:57.933Z,61.00
2022-07-25T15:24:29.048Z,61.20
2022-07-25T15:26:59.211Z,60.80
2022-07-25T15:29:30.519Z,61.30
2022-07-25T15:31:58.946Z,62.20
2022-07-25T15:34:31.167Z,61.50
2022-07-25T15:36:58.406Z,61.80
2022-07-25T15:39:25.422Z,62.10
2022-07-25T15:41:52.470Z,62.40
2022-07-25T15:44:22.740Z,61.80
2022-07-25T15:46:49.782Z,62.30
2022-07-25T15:49:18.451Z,61.20
2022-07-25T15:51:45.478Z,60.50
2022-07-25T15:54:15.451Z,60.80
2022-07-25T15:56:42.612Z,60.50
2022-07-25T15:59:10.103Z,60.90
2022-07-25T16:01:37.464Z,61.50
2022-07-25T16:04:04.897Z,61.80
2022-07-25T16:06:33.504Z,61.20
2022-07-25T16:09:00.851Z,61.40
2022-07-25T16:11:28.083Z,62.10
2022-07-25T16:13:55.127Z,61.40
2022-07-25T16:16:25.852Z,60.80
2022-07-25T16:18:53.159Z,60.40
2022-07-25T16:21:20.206Z,60.50
2022-07-25T16:23:48.772Z,60.40
2022-07-25T16:26:15.910Z,61.10
2022-07-25T16:28:44.418Z,61.40
2022-07-25T16:31:11.852Z,61.50
2022-07-25T16:33:39.070Z,61.90
2022-07-25T16:36:07.375Z,61.90
2022-07-25T16:38:34.815Z,61.20
2022-07-25T16:41:03.273Z,60.80
2022-07-25T16:43:30.393Z,60.80
2022-07-25T16:45:57.449Z,61.00
2022-07-25T16:48:25.103Z,61.10
2022-07-25T16:50:52.292Z,60.00
2022-07-25T16:53:20.478Z,59.60
2022-07-25T16:55:47.473Z,59.50
2022-07-25T16:58:16.086Z,59.70
2022-07-25T17:00:43.623Z,59.70
2022-07-25T17:03:10.665Z,58.80
2022-07-25T17:05:37.729Z,58.90
2022-07-25T17:08:05.259Z,59.80
2022-07-25T17:10:32.343Z,57.90
2022-07-25T17:13:02.155Z,57.70
2022-07-25T17:15:30.743Z,56.70
2022-07-25T17:17:58.958Z,57.20
2022-07-25T17:20:26.246Z,60.20
2022-07-25T17:22:54.238Z,63.20
2022-07-25T17:25:21.454Z,65.20
2022-07-25T17:27:48.678Z,66.00
2022-07-25T17:30:15.708Z,66.80
2022-07-25T17:32:44.153Z,67.10
2022-07-25T17:35:18.492Z,68.10
2022-07-25T17:37:46.063Z,67.80
2022-07-25T17:40:13.584Z,68.30
2022-07-25T17:42:45.434Z,68.60
2022-07-25T17:45:13.391Z,68.90
2022-07-25T17:47:42.894Z,69.20
2022-07-25T17:50:12.086Z,69.40
2022-07-25T17:52:39.955Z,69.60
2022-07-25T17:55:08.026Z,69.60
2022-07-25T17:57:35.206Z,69.80
2022-07-25T18:00:02.642Z,69.60
2022-07-25T18:02:30.247Z,69.60
2022-07-25T18:05:01.152Z,69.50
2022-07-25T18:07:28.181Z,69.70
2022-07-25T18:09:55.331Z,69.90
2022-07-25T18:12:27.433Z,70.00
2022-07-25T18:14:56.410Z,69.80
2022-07-25T18:17:23.420Z,69.80
2022-07-25T18:19:50.485Z,70.10
2022-07-25T18:22:18.966Z,70.20
2022-07-25T18:24:48.916Z,70.50
2022-07-25T18:27:16.018Z,70.60
2022-07-25T18:29:43.149Z,70.70
2022-07-25T18:32:10.314Z,70.70
2022-07-25T18:34:37.425Z,70.90
2022-07-25T18:37:07.821Z,71.10
2022-07-25T18:39:36.549Z,71.10
2022-07-25T18:42:03.888Z,71.20
2022-07-25T18:44:33.988Z,71.40
2022-07-25T18:47:01.399Z,71.50
2022-07-25T18:49:29.105Z,71.60
2022-07-25T18:51:56.255Z,71.60
2022-07-25T18:54:23.501Z,71.80
2022-07-25T18:56:51.975Z,71.90
2022-07-25T18:59:19.144Z,72.00
2022-07-25T19:01:50.983Z,72.20
2022-07-25T19:04:18.334Z,72.50
2022-07-25T19:06:48.201Z,72.40
2022-07-25T19:09:18.977Z,72.60
2022-07-25T19:11:47.821Z,72.80
2022-07-25T19:14:16.223Z,72.90
2022-07-25T19:16:43.840Z,73.50
2022-07-25T19:19:11.153Z,73.00
2022-07-25T19:21:38.235Z,73.00
2022-07-25T19:24:06.576Z,73.20
2022-07-25T19:26:33.852Z,73.50
2022-07-25T19:29:00.995Z,73.40
2022-07-25T19:31:37.250Z,73.50
2022-07-25T19:34:05.139Z,73.70
2022-07-25T19:36:33.092Z,73.70
2022-07-25T19:39:11.500Z,73.90
2022-07-25T19:41:42.103Z,74.10
2022-07-25T19:44:11.865Z,74.30
2022-07-25T19:46:40.458Z,74.50
2022-07-25T19:49:07.924Z,74.50
2022-07-25T19:51:35.569Z,74.50
2022-07-25T19:54:03.767Z,74.80
2022-07-25T19:56:31.588Z,74.90
2022-07-25T19:58:58.671Z,75.00
2022-07-25T20:01:30.502Z,75.20
2022-07-25T20:03:58.923Z,75.30
2022-07-25T20:06:26.067Z,75.40
2022-07-25T20:08:56.025Z,75.60
2022-07-25T20:11:26.124Z,75.70
2022-07-25T20:13:54.237Z,75.90
2022-07-25T20:16:21.701Z,75.80
2022-07-25T20:18:49.243Z,75.90
2022-07-25T20:21:20.947Z,75.90
2022-07-25T20:23:51.111Z,76.20
2022-07-25T20:26:18.413Z,76.20
2022-07-25T20:28:45.606Z,76.10
2022-07-25T20:31:24.346Z,76.30
2022-07-25T20:33:52.479Z,76.10
2022-07-25T20:36:21.673Z,76.40
2022-07-25T20:38:48.828Z,76.50
2022-07-25T20:41:16.284Z,76.80
2022-07-25T20:43:57.359Z,76.40
2022-07-25T20:46:28.370Z,75.50
2022-07-25T20:48:55.646Z,75.00
2022-07-25T20:51:24.395Z,74.00
2022-07-25T20:53:53.248Z,73.40
2022-07-25T20:56:20.804Z,73.00
2022-07-25T20:58:47.797Z,72.40
2022-07-25T21:01:15.294Z,73.00
2022-07-25T21:03:42.403Z,72.30
2022-07-25T21:06:09.406Z,72.30
2022-07-25T21:08:37.888Z,72.00
2022-07-25T21:11:04.876Z,72.10
2022-07-25T21:13:35.027Z,71.90
2022-07-25T21:16:02.050Z,72.00
2022-07-25T21:18:29.620Z,71.90
2022-07-25T21:20:56.693Z,72.00
2022-07-25T21:23:23.798Z,72.20
2022-07-25T21:25:52.303Z,72.30
2022-07-25T21:28:19.501Z,72.70
2022-07-25T21:30:46.576Z,73.00
2022-07-25T21:33:16.743Z,73.00
2022-07-25T21:35:50.447Z,73.30
2022-07-25T21:38:26.865Z,73.50
2022-07-25T21:40:57.377Z,73.00
2022-07-25T21:43:24.634Z,73.30
2022-07-25T21:45:51.780Z,73.60
2022-07-25T21:48:22.020Z,73.90
2022-07-25T21:50:50.510Z,74.00
2022-07-25T21:53:17.761Z,73.30
2022-07-25T21:55:44.935Z,72.40
2022-07-25T21:58:22.536Z,72.50
2022-07-25T22:00:50.184Z,72.80
2022-07-25T22:03:17.391Z,72.80
2022-07-25T22:05:44.552Z,73.10
2022-07-25T22:08:11.790Z,73.30
2022-07-25T22:10:38.807Z,73.70
2022-07-25T22:13:12.590Z,74.10
2022-07-25T22:15:41.288Z,74.50
2022-07-25T22:18:08.710Z,74.60
2022-07-25T22:20:35.812Z,74.90
2022-07-25T22:23:03.302Z,74.80
2022-07-25T22:25:30.369Z,74.80
2022-07-25T22:27:57.387Z,75.00
2022-07-25T22:30:24.879Z,75.30
2022-07-25T22:32:53.372Z,75.50
2022-07-25T22:35:20.603Z,75.80
2022-07-25T22:37:47.661Z,75.80
2022-07-25T22:40:15.251Z,75.70
2022-07-25T22:42:42.280Z,75.70
2022-07-25T22:45:10.465Z,75.60
2022-07-25T22:47:37.706Z,75.70
2022-07-25T22:50:08.584Z,76.10
2022-07-25T22:52:35.688Z,76.00
2022-07-25T22:55:03.139Z,75.90
2022-07-25T22:57:30.216Z,76.00
2022-07-25T23:00:07.337Z,76.00
2022-07-25T23:02:34.620Z,75.90
2022-07-25T23:05:02.055Z,75.70
2022-07-25T23:07:30.498Z,75.40
2022-07-25T23:09:57.589Z,75.40
2022-07-25T23:12:24.613Z,75.00
2022-07-25T23:14:51.760Z,74.80
2022-07-25T23:17:20.221Z,74.80
2022-07-25T23:19:49.850Z,74.70
2022-07-25T23:22:18.063Z,74.40
2022-07-25T23:24:47.064Z,74.40
2022-07-25T23:27:14.833Z,74.50
2022-07-25T23:29:42.539Z,74.90
2022-07-25T23:32:09.623Z,75.10
2022-07-25T23:34:36.808Z,75.20
2022-07-25T23:37:05.749Z,75.30
2022-07-25T23:39:33.381Z,75.40
2022-07-25T23:42:02.496Z,75.60
2022-07-25T23:44:30.224Z,75.70
2022-07-25T23:46:59.901Z,75.60
2022-07-25T23:49:28.655Z,75.60
2022-07-25T23:51:57.275Z,75.70
2022-07-25T23:54:24.868Z,75.90
2022-07-25T23:56:52.161Z,76.60
2022-07-25T23:59:20.841Z,76.40
